JSC Bldg. 30 Campbell TX US JSCNASA current weather conditions

sailwx.info

Wind from 290 at 11 knots gusting 15

Air temperature 23.0° C
Dewpoint 13.6° C

Last reported at 2019-Dec-06 18:02 UTC.
Time now 2019-Dec-06 18:41 UTC

Location: N 29°33' W 095°05'.
View on Google Maps.

See reports from other nearby stations

  
Tides and Currents Weather Stations Pressure Air Temp Water Temp Dewpoint Dewpoint Depression Visibility Wind Speed Wind Dir Waves Ship Positions
date/time (UTC)wind fromknots sea level pressurealtimeterstation pressurevisibilityair tempwater tempwave heightnotes
2019-Dec-06 18:02 290 11 gusting 15 23.0
2019-Dec-06 17:52 317 10 gusting 15 23.2
2019-Dec-06 17:46 317 13 gusting 18 23.0
2019-Dec-06 17:42 307 13 gusting 17 23.1
2019-Dec-06 17:36 328 13 gusting 20 23.2
2019-Dec-06 17:32 315 14 gusting 17 22.6
2019-Dec-06 17:26 300 9 gusting 14 23.0
2019-Dec-06 17:22 312 12 gusting 16 22.6
2019-Dec-06 17:16 297 13 gusting 17 22.4
2019-Dec-06 17:12 289 12 gusting 16 22.5
2019-Dec-06 17:06 298 12 gusting 18 22.2
2019-Dec-06 17:02 308 13 gusting 17 22.2
2019-Dec-06 16:56 297 9 gusting 16 22.5
2019-Dec-06 16:52 302 9 gusting 13 22.3
2019-Dec-06 16:46 295 11 gusting 15 21.9
2019-Dec-06 16:42 295 11 gusting 15 22.1
2019-Dec-06 16:36 303 11 gusting 15 22.0
2019-Dec-06 16:32 303 12 gusting 17 21.8
2019-Dec-06 16:26 300 10 gusting 14 21.8
2019-Dec-06 16:22 306 12 gusting 16 21.5
2019-Dec-06 16:16 297 11 gusting 14 21.4
2019-Dec-06 16:12 292 11 gusting 15 21.4
2019-Dec-06 16:06 288 13 gusting 17 21.3
2019-Dec-06 16:02 291 11 gusting 17 21.2
2019-Dec-06 15:56 295 10 gusting 16 21.1
2019-Dec-06 15:52 296 10 gusting 14 21.0
2019-Dec-06 15:46 301 13 gusting 18 21.0
2019-Dec-06 15:42 305 12 gusting 18 20.9
2019-Dec-06 15:36 309 15 gusting 19 20.7
2019-Dec-06 15:32 300 15 gusting 20 20.8
2019-Dec-06 15:26 295 11 gusting 16 20.8
2019-Dec-06 15:22 295 10 gusting 14 20.6
2019-Dec-06 15:16 293 11 gusting 15 20.4
2019-Dec-06 15:12 291 11 gusting 17 20.3
2019-Dec-06 15:06 293 12 gusting 17 20.2
2019-Dec-06 15:02 288 13 gusting 17 20.2
2019-Dec-06 14:56 288 15 gusting 18 20.0
2019-Dec-06 14:52 293 12 gusting 16 19.9
2019-Dec-06 14:46 288 12 gusting 16 19.8
2019-Dec-06 14:42 288 13 gusting 17 19.8
2019-Dec-06 14:36 290 14 gusting 19 19.8
2019-Dec-06 14:32 288 11 gusting 16 19.7
2019-Dec-06 14:26 288 11 gusting 15 19.6
2019-Dec-06 14:22 286 10 gusting 13 19.6
2019-Dec-06 14:16 290 9 gusting 13 19.6
2019-Dec-06 14:12 290 10 gusting 14 19.5
2019-Dec-06 14:06 290 11 gusting 15 19.5
2019-Dec-06 14:02 284 9 gusting 16 19.5
2019-Dec-06 13:56 290 8 gusting 11 19.5
2019-Dec-06 13:52 288 9 gusting 14 19.5
2019-Dec-06 13:46 282 12 gusting 19 19.5
2019-Dec-06 13:42 280 10 gusting 14 19.5
2019-Dec-06 13:36 280 10 gusting 13 19.3
2019-Dec-06 13:32 277 9 gusting 12 19.2
2019-Dec-06 13:26 274 8 gusting 10 18.9
2019-Dec-06 13:22 271 9 gusting 12 18.9
2019-Dec-06 13:16 229 9 gusting 11 18.9
2019-Dec-06 13:12 229 9 gusting 12 19.0
2019-Dec-06 13:06 249 6 gusting 10 18.8
2019-Dec-06 13:02 261 9 gusting 12 18.8
2019-Dec-06 12:56 268 7 gusting 9 18.7
2019-Dec-06 12:52 285 6 gusting 9 18.7
2019-Dec-06 12:46 253 8 gusting 11 18.9
2019-Dec-06 12:42 256 7 gusting 11 18.9
2019-Dec-06 12:36 251 4 gusting 8 18.7
2019-Dec-06 12:32 248 6 gusting 8 18.6
2019-Dec-06 12:26 260 8 gusting 9 18.7
2019-Dec-06 12:22 263 8 gusting 10 18.7
2019-Dec-06 12:16 245 5 gusting 9 18.4
2019-Dec-06 12:12 252 6 gusting 9 18.2
2019-Dec-06 12:06 249 5 gusting 9 18.2
2019-Dec-06 12:02 234 7 gusting 10 18.3
2019-Dec-06 11:56 237 5 gusting 10 18.3
2019-Dec-06 11:52 236 6 gusting 9 18.3
2019-Dec-06 11:46 236 6 gusting 10 18.4
2019-Dec-06 11:42 234 8 gusting 10 18.4
2019-Dec-06 11:36 235 7 gusting 10 18.4
2019-Dec-06 11:32 235 8 gusting 11 18.4
2019-Dec-06 11:26 234 8 gusting 10 18.5
2019-Dec-06 11:22 234 8 gusting 10 18.6
2019-Dec-06 00:06 153 4 gusting 7 19.7
2019-Dec-06 00:02 155 4 gusting 6 19.7
2019-Dec-05 23:56 164 6 gusting 8 19.9
2019-Dec-05 23:52 164 6 gusting 9 19.9
2019-Dec-05 23:46 165 7 gusting 9 20.0
2019-Dec-05 23:42 165 6 gusting 10 20.0
2019-Dec-05 23:36 168 5 gusting 8 20.1
2019-Dec-05 23:32 166 6 gusting 9 20.1
2019-Dec-05 23:26 159 5 gusting 8 20.2
2019-Dec-05 23:22 157 5 gusting 8 20.2
2019-Dec-05 23:16 159 6 gusting 9 20.3
2019-Dec-05 23:12 159 4 gusting 9 20.4
2019-Dec-05 23:06 151 7 gusting 11 20.5
2019-Dec-05 23:02 157 7 gusting 10 20.5
2019-Dec-05 22:56 164 7 gusting 11 20.6
2019-Dec-05 22:52 167 6 gusting 9 20.7
2019-Dec-05 22:46 167 8 gusting 11 20.7
2019-Dec-05 22:42 161 8 gusting 11 20.8
2019-Dec-05 22:36 157 6 gusting 8 20.9
2019-Dec-05 22:32 167 5 gusting 7 21.1
2019-Dec-05 22:26 172 6 gusting 9 21.3
2019-Dec-05 22:22 178 7 gusting 12 21.2
2019-Dec-05 22:16 161 7 gusting 10 21.2
2019-Dec-05 22:12 183 6 gusting 10 21.4
2019-Dec-05 22:06 175 10 gusting 13 21.3
2019-Dec-05 22:02 159 8 gusting 12 21.2
2019-Dec-05 21:56 160 10 gusting 14 21.1
2019-Dec-05 21:52 162 9 gusting 13 21.1
2019-Dec-05 21:46 158 7 gusting 10 21.4
2019-Dec-05 21:42 170 8 gusting 15 21.3
2019-Dec-05 21:36 168 6 gusting 9 21.4
2019-Dec-05 21:32 178 8 gusting 16 21.4
2019-Dec-05 21:26 169 8 gusting 12 21.3
2019-Dec-05 21:22 163 11 gusting 17 21.3
2019-Dec-05 21:16 162 10 gusting 13 21.4
2019-Dec-05 21:12 164 11 gusting 18 21.5
2019-Dec-05 21:06 179 9 gusting 17 21.9
2019-Dec-05 21:02 167 7 gusting 14 21.8
2019-Dec-05 20:56 181 8 gusting 12 21.8
2019-Dec-05 20:52 189 10 gusting 15 21.7
2019-Dec-05 20:46 188 8 gusting 15 21.9
2019-Dec-05 20:42 170 8 gusting 12 21.9
2019-Dec-05 20:36 181 8 gusting 16 22.1
2019-Dec-05 20:32 175 6 gusting 11 22.2
2019-Dec-05 20:26 159 8 gusting 11 22.1
2019-Dec-05 20:22 161 9 gusting 14 22.1
2019-Dec-05 20:16 187 7 gusting 12 22.2
2019-Dec-05 20:12 163 4 gusting 7 22.3
2019-Dec-05 20:06 165 7 gusting 11 22.3
2019-Dec-05 20:02 174 6 gusting 12 22.3
2019-Dec-05 19:56 172 6 gusting 10 22.2
2019-Dec-05 19:52 185 4 gusting 10 22.4
2019-Dec-05 19:46 175 7 gusting 10 22.3
2019-Dec-05 19:42 137 4 gusting 9 22.6
2019-Dec-05 19:36 183 4 gusting 7 22.9
2019-Dec-05 19:32 196 6 gusting 14 22.4
2019-Dec-05 19:26 188 7 gusting 15 22.5
2019-Dec-05 19:22 199 8 gusting 12 22.6
2019-Dec-05 19:16 164 8 gusting 11 22.3
2019-Dec-05 19:12 158 6 gusting 10 22.7
2019-Dec-05 19:06 165 4 gusting 9 23.0
2019-Dec-05 19:02 138 3 gusting 9 23.0
2019-Dec-05 18:56 160 8 gusting 11 22.4
2019-Dec-05 18:52 180 6 gusting 12 23.1
2019-Dec-05 18:46 210 6 gusting 11 22.7
2019-Dec-05 18:42 169 6 gusting 14 22.9
2019-Dec-05 18:36 198 3 gusting 11 22.0
2019-Dec-05 18:32 109 4 gusting 8 21.7
2019-Dec-05 18:26 072 4 gusting 6 20.9
2019-Dec-05 18:22 094 7 gusting 10 20.5
2019-Dec-05 18:16 086 7 gusting 9 20.6
2019-Dec-05 18:12 090 6 gusting 9 20.6
2019-Dec-05 18:06 087 9 gusting 11 20.0
2019-Dec-05 18:02 096 7 gusting 12 20.3
2019-Dec-05 17:56 083 6 gusting 10 20.3
2019-Dec-05 17:52 071 5 gusting 8 20.1
2019-Dec-05 17:46 091 8 gusting 9 19.7
2019-Dec-05 17:42 087 6 gusting 9 20.0
2019-Dec-05 17:36 086 6 gusting 8 19.8
2019-Dec-05 17:32 094 7 gusting 9 19.9
2019-Dec-05 17:26 088 6 gusting 9 19.9
2019-Dec-05 17:22 088 6 gusting 9 20.0
2019-Dec-05 17:16 104 5 gusting 8 20.1
2019-Dec-05 17:12 094 6 gusting 7 19.8
2019-Dec-05 17:06 092 4 gusting 5 19.7
2019-Dec-05 17:02 088 6 gusting 7 19.5
2019-Dec-05 16:56 094 5 gusting 8 19.4
2019-Dec-05 16:52 095 6 gusting 8 19.3
2019-Dec-05 16:46 090 6 gusting 8 19.1
2019-Dec-05 16:36 093 5 gusting 8 19.0
2019-Dec-05 16:26 093 6 gusting 7 18.6
2019-Dec-05 16:22 095 6 gusting 7 18.5
2019-Dec-05 16:12 093 6 gusting 7 18.2
2019-Dec-05 16:06 090 6 gusting 8 18.1
2019-Dec-05 16:02 090 6 gusting 9 18.1
2019-Dec-05 15:56 093 6 gusting 8 17.7
2019-Dec-05 15:52 090 6 gusting 7 17.7
2019-Dec-05 15:46 094 5 gusting 7 17.9
2019-Dec-05 15:42 103 6 gusting 8 17.7
2019-Dec-05 15:36 093 6 gusting 8 17.6
2019-Dec-05 15:32 093 6 gusting 8 17.5
2019-Dec-05 15:26 093 6 gusting 8 17.4
2019-Dec-05 15:22 095 5 gusting 7 17.4
2019-Dec-05 15:16 097 5 gusting 7 17.3
2019-Dec-05 15:12 103 5 gusting 7 17.1
2019-Dec-05 15:06 113 6 gusting 8 16.8
2019-Dec-05 15:02 102 6 gusting 8 16.6
2019-Dec-05 14:56 109 6 gusting 8 16.5
2019-Dec-05 14:52 095 6 gusting 8 16.6
2019-Dec-05 14:46 096 6 gusting 8 16.6
2019-Dec-05 14:42 090 4 gusting 6 16.4
2019-Dec-05 14:36 097 6 gusting 7 16.2
2019-Dec-05 14:32 097 6 gusting 7 16.1
2019-Dec-05 14:26 095 6 gusting 7 15.9
2019-Dec-05 14:22 099 6 gusting 7 15.9
2019-Dec-05 14:16 097 5 gusting 6 15.9
2019-Dec-05 14:12 106 6 gusting 8 15.8
2019-Dec-05 14:06 115 6 gusting 7 15.8
2019-Dec-05 14:02 111 6 gusting 7 15.8
2019-Dec-05 13:56 116 5 gusting 7 15.7
2019-Dec-05 13:52 111 6 gusting 7 15.7
2019-Dec-05 13:46 107 5 gusting 6 15.6
2019-Dec-05 13:42 110 6 gusting 7 15.6
2019-Dec-05 13:36 111 6 gusting 7 15.6
2019-Dec-05 13:32 101 5 gusting 6 15.5
2019-Dec-05 13:26 105 6 gusting 7 15.5
2019-Dec-05 13:22 104 6 gusting 6 15.5
2019-Dec-05 13:16 094 6 gusting 6 15.6
2019-Dec-05 13:12 096 6 gusting 6 15.6
2019-Dec-05 13:06 101 6 gusting 6 15.5
2019-Dec-05 13:02 101 6 gusting 7 15.4
2019-Dec-05 12:56 104 6 gusting 7 15.4
2019-Dec-05 12:52 110 7 gusting 8 15.4
2019-Dec-05 12:46 116 7 gusting 7 15.4
2019-Dec-05 12:42 116 7 gusting 7 15.4
2019-Dec-05 12:36 109 7 gusting 8 15.4
2019-Dec-05 12:32 105 6 gusting 7 15.4
2019-Dec-05 12:26 104 7 gusting 7 15.5
2019-Dec-05 12:22 103 7 gusting 8 15.6
2019-Dec-05 12:16 107 7 gusting 7 15.7
2019-Dec-05 12:12 099 6 gusting 6 15.6
2019-Dec-05 12:06 097 6 gusting 6 15.6
2019-Dec-05 12:02 096 6 gusting 6 15.6
2019-Dec-05 11:56 091 6 gusting 6 15.6
2019-Dec-05 11:52 087 5 gusting 6 15.4
2019-Dec-05 11:46 091 5 gusting 6 15.6
2019-Dec-05 11:42 104 6 gusting 6 15.7
2019-Dec-05 11:36 111 6 gusting 6 15.7
2019-Dec-05 11:32 115 6 gusting 7 15.7
2019-Dec-05 11:26 117 6 gusting 7 15.6
2019-Dec-05 11:22 120 7 gusting 7 15.6
2019-Dec-05 11:16 123 6 gusting 7 15.6
2019-Dec-05 11:12 124 6 gusting 7 15.6
2019-Dec-05 11:06 128 7 gusting 7 15.8
2019-Dec-05 11:02 128 7 gusting 8 15.8
2019-Dec-05 10:56 126 6 gusting 7 15.7
2019-Dec-05 10:52 127 6 gusting 7 15.8
2019-Dec-05 10:46 131 7 gusting 7 16.0
2019-Dec-05 10:42 130 7 gusting 7 16.1
2019-Dec-05 10:36 133 7 gusting 8 16.1
2019-Dec-05 10:32 133 6 gusting 7 16.0
2019-Dec-05 10:26 136 6 gusting 7 15.8
2019-Dec-05 10:22 133 6 gusting 6 15.9
2019-Dec-05 10:16 107 4 gusting 4 15.7
2019-Dec-05 10:12 111 3 gusting 3 15.6
2019-Dec-05 10:06 116 2 gusting 2 15.6
2019-Dec-05 10:02 130 3 gusting 3 15.7
2019-Dec-05 09:56 125 3 gusting 3 15.7
2019-Dec-05 09:52 119 2 gusting 2 15.8
2019-Dec-05 09:46 126 2 gusting 2 15.7
2019-Dec-05 09:42 128 2 gusting 2 15.6
2019-Dec-05 09:36 132 2 gusting 2 15.4
2019-Dec-05 09:32 134 1 gusting 2 15.3
2019-Dec-05 09:26 139 2 gusting 2 15.4
2019-Dec-05 09:22 143 3 gusting 4 15.5
2019-Dec-05 09:16 143 3 gusting 4 15.3
2019-Dec-05 09:12 144 3 gusting 4 15.4
2019-Dec-05 09:06 147 4 gusting 4 15.6
2019-Dec-05 09:02 147 4 gusting 4 15.4
2019-Dec-05 08:56 155 3 gusting 3 15.3
2019-Dec-05 08:52 160 3 gusting 4 15.4
2019-Dec-05 08:46 144 3 gusting 3 15.5
2019-Dec-05 08:42 142 4 gusting 4 15.5
2019-Dec-05 08:36 149 3 gusting 3 15.6
2019-Dec-05 08:32 147 3 gusting 4 15.6
2019-Dec-05 08:26 150 3 gusting 4 15.6
2019-Dec-05 08:22 157 3 gusting 4 15.6
2019-Dec-05 08:16 164 3 gusting 3 15.5
2019-Dec-05 08:12 168 3 gusting 4 15.5
2019-Dec-05 08:06 164 4 gusting 4 15.8
2019-Dec-05 08:02 158 4 gusting 4 15.9
2019-Dec-05 07:56 161 3 gusting 4 15.8
2019-Dec-05 07:52 169 3 gusting 4 15.7
2019-Dec-05 07:46 170 3 gusting 4 15.7
2019-Dec-05 07:42 164 4 gusting 4 15.9
2019-Dec-05 07:32 154 3 gusting 3 15.5
2019-Dec-05 07:26 157 4 gusting 4 15.5
2019-Dec-05 07:22 151 3 gusting 4 15.4
2019-Dec-05 07:16 140 4 gusting 5 15.4
2019-Dec-05 07:12 137 4 gusting 5 15.5
2019-Dec-05 07:06 125 3 gusting 4 15.6
2019-Dec-05 07:02 136 4 gusting 5 15.6
2019-Dec-05 06:56 133 4 gusting 5 15.5
2019-Dec-05 06:52 146 4 gusting 5 15.8
2019-Dec-05 06:46 155 5 gusting 6 16.1
2019-Dec-05 06:42 157 5 gusting 6 16.1
2019-Dec-05 06:36 157 5 gusting 5 16.2
2019-Dec-05 06:32 162 4 gusting 5 16.0
2019-Dec-05 06:26 166 4 gusting 4 16.1
2019-Dec-05 06:22 165 4 gusting 5 16.1
2019-Dec-05 06:16 165 4 gusting 5 16.5
2019-Dec-05 06:12 161 5 gusting 6 16.6
2019-Dec-05 06:06 156 6 gusting 6 16.7
2019-Dec-05 06:02 157 6 gusting 6 16.3
2019-Dec-05 05:56 163 5 gusting 5 15.8
2019-Dec-05 05:52 164 4 gusting 6 15.7
2019-Dec-05 05:46 167 5 gusting 6 15.8
2019-Dec-05 05:42 159 6 gusting 6 16.0
2019-Dec-05 05:36 149 4 gusting 5 16.2
2019-Dec-05 05:32 145 5 gusting 6 16.2
2019-Dec-05 05:26 138 4 gusting 5 16.1
2019-Dec-05 05:22 133 4 gusting 4 16.1
2019-Dec-05 05:16 136 4 gusting 5 16.2
2019-Dec-05 05:12 135 5 gusting 6 16.3
2019-Dec-05 05:06 138 5 gusting 6 16.3
2019-Dec-05 05:02 140 5 gusting 7 16.4
2019-Dec-05 04:56 130 6 gusting 7 16.4
2019-Dec-05 04:52 127 6 gusting 6 16.4
2019-Dec-05 04:46 129 6 gusting 7 16.4
2019-Dec-05 04:42 124 6 gusting 7 16.4
2019-Dec-05 04:36 110 5 gusting 6 16.5
2019-Dec-05 04:32 112 5 gusting 5 16.5
2019-Dec-05 04:26 110 4 gusting 6 16.4
2019-Dec-05 04:22 109 5 gusting 6 16.5
2019-Dec-05 04:16 105 5 gusting 6 16.4
2019-Dec-05 04:12 105 5 gusting 6 16.5
2019-Dec-05 04:06 108 5 gusting 6 16.7
2019-Dec-05 04:02 100 4 gusting 5 16.8
2019-Dec-05 03:56 097 5 gusting 5 16.9
2019-Dec-05 03:52 096 5 gusting 6 17.0
2019-Dec-05 03:46 093 5 gusting 6 17.2
2019-Dec-05 03:42 098 6 gusting 6 17.3
2019-Dec-05 03:36 094 6 gusting 6 17.4
2019-Dec-05 03:32 097 5 gusting 5 17.5
2019-Dec-05 03:26 099 5 gusting 5 17.6
2019-Dec-05 03:22 093 5 gusting 6 17.7
2019-Dec-05 03:16 094 5 gusting 6 17.8
2019-Dec-05 03:12 092 5 gusting 6 17.8
2019-Dec-05 03:06 089 5 gusting 6 17.8
2019-Dec-05 03:02 094 6 gusting 6 17.9
2019-Dec-05 02:56 095 6 gusting 6 17.9
2019-Dec-05 02:52 094 6 gusting 7 17.9
2019-Dec-05 02:46 089 6 gusting 7 18.1
2019-Dec-05 02:42 093 6 gusting 7 18.2
2019-Dec-05 02:36 081 7 gusting 8 18.4
2019-Dec-05 02:32 073 7 gusting 8 18.4
2019-Dec-05 02:26 076 7 gusting 8 18.3
2019-Dec-05 02:22 076 8 gusting 9 18.4
2019-Dec-05 02:16 079 8 gusting 9 18.4
2019-Dec-05 02:12 071 6 gusting 8 18.5
2019-Dec-05 02:06 076 6 gusting 8 18.5
2019-Dec-05 02:02 069 7 gusting 9 18.9
2019-Dec-05 01:56 074 7 gusting 8 19.0
2019-Dec-05 01:52 081 8 gusting 9 19.1
2019-Dec-05 01:46 086 7 gusting 8 18.9
2019-Dec-05 01:42 088 7 gusting 8 18.8
2019-Dec-05 01:36 093 6 gusting 7 18.5
2019-Dec-05 01:32 082 5 gusting 6 18.7
2019-Dec-05 01:26 072 4 gusting 5 19.0
2019-Dec-05 01:22 065 5 gusting 6 19.3
2019-Dec-05 01:16 052 5 gusting 6 19.3
2019-Dec-05 01:12 050 5 gusting 6 19.5
2019-Dec-05 01:06 054 5 gusting 5 19.1
2019-Dec-05 01:02 059 5 gusting 6 19.6
2019-Dec-05 00:56 054 4 gusting 6 19.4
2019-Dec-05 00:52 054 4 gusting 5 19.5
2019-Dec-05 00:46 052 4 gusting 5 19.7
2019-Dec-05 00:42 052 3 gusting 4 19.8
2019-Dec-05 00:36 055 4 gusting 4 19.8
2019-Dec-05 00:32 053 3 gusting 3 19.8
2019-Dec-05 00:26 066 3 gusting 4 20.1
2019-Dec-05 00:22 068 3 gusting 3 19.9
2019-Dec-05 00:16 083 3 gusting 3 19.9
2019-Dec-05 00:12 093 3 gusting 3 20.0
2019-Dec-05 00:06 098 3 gusting 3 19.9
2019-Dec-05 00:02 090 3 gusting 3 19.8
2019-Dec-04 23:56 102 2 gusting 2 19.7
2019-Dec-04 23:52 099 2 gusting 2 19.8
2019-Dec-04 23:46 097 2 gusting 3 19.8
2019-Dec-04 23:42 098 2 gusting 2 19.8
2019-Dec-04 23:36 105 2 gusting 3 19.8
2019-Dec-04 23:32 117 3 gusting 3 19.9
2019-Dec-04 23:26 121 3 gusting 3 19.8
2019-Dec-04 23:22 118 2 gusting 3 19.9
2019-Dec-04 23:16 113 3 gusting 3 20.0
2019-Dec-04 23:12 107 2 gusting 3 20.0
2019-Dec-04 23:06 100 3 gusting 3 20.0
2019-Dec-04 23:02 097 3 gusting 3 19.9
2019-Dec-04 22:56 089 3 gusting 3 19.9
2019-Dec-04 22:52 083 3 gusting 3 19.9
2019-Dec-04 22:46 101 3 gusting 3 19.7
2019-Dec-04 22:42 100 3 gusting 4 19.8
2019-Dec-04 22:36 098 3 gusting 4 19.9
2019-Dec-04 22:32 104 4 gusting 5 19.8
2019-Dec-04 22:26 104 6 gusting 6 19.9
2019-Dec-04 22:22 109 6 gusting 7 19.8
2019-Dec-04 22:16 106 5 gusting 6 20.1
2019-Dec-04 22:12 108 6 gusting 7 20.1
2019-Dec-04 22:06 111 6 gusting 7 20.1
2019-Dec-04 22:02 110 6 gusting 7 20.1
2019-Dec-04 21:56 112 5 gusting 7 20.2
2019-Dec-04 21:52 106 6 gusting 7 20.3
2019-Dec-04 21:46 111 4 gusting 7 20.4
2019-Dec-04 21:42 112 5 gusting 6 20.5
2019-Dec-04 21:36 116 5 gusting 7 20.6
2019-Dec-04 21:32 117 4 gusting 6 20.6
2019-Dec-04 21:26 116 6 gusting 8 20.4
2019-Dec-04 21:22 115 5 gusting 7 20.7
2019-Dec-04 21:16 111 6 gusting 7 20.6
2019-Dec-04 21:12 102 6 gusting 7 20.8
2019-Dec-04 21:06 108 5 gusting 6 21.2
2019-Dec-04 21:02 079 3 gusting 5 21.8
2019-Dec-04 20:56 081 4 gusting 6 21.9
2019-Dec-04 20:52 081 3 gusting 5 21.9
2019-Dec-04 20:46 108 2 gusting 4 22.0
2019-Dec-04 20:42 105 4 gusting 6 21.9
2019-Dec-04 20:36 107 4 gusting 6 21.6
2019-Dec-04 20:32 090 4 gusting 6 21.8
2019-Dec-04 20:26 097 4 gusting 8 21.5
2019-Dec-04 20:22 084 5 gusting 7 21.8
2019-Dec-04 20:16 066 3 gusting 6 21.9
2019-Dec-04 20:12 030 5 gusting 8 22.2
2019-Dec-04 20:06 040 6 gusting 8 22.2
2019-Dec-04 20:02 030 4 gusting 6 22.0
2019-Dec-04 19:56 013 7 gusting 9 22.1
2019-Dec-04 19:52 023 6 gusting 9 22.0
2019-Dec-04 19:46 004 4 gusting 8 22.3
2019-Dec-04 19:42 343 6 gusting 8 21.9
2019-Dec-04 19:36 035 6 gusting 10 22.1
2019-Dec-04 19:32 037 7 gusting 9 21.9
2019-Dec-04 19:26 005 5 gusting 9 21.8
2019-Dec-04 19:22 057 2 gusting 4 21.7
2019-Dec-04 19:16 017 4 gusting 7 21.6
2019-Dec-04 19:12 325 3 gusting 6 21.8
2019-Dec-04 19:06 111 3 gusting 5 21.2
2019-Dec-04 19:02 093 3 gusting 5 21.1
2019-Dec-04 18:56 087 3 gusting 5 21.2
2019-Dec-04 18:52 112 5 gusting 8 20.8
2019-Dec-04 18:46 072 5 gusting 8 20.8
2019-Dec-04 18:42 070 3 gusting 5 20.9
2019-Dec-04 18:36 076 3 gusting 6 21.0
2019-Dec-04 18:32 032 3 gusting 7 21.0
2019-Dec-04 18:26 099 2 gusting 4 20.7
2019-Dec-04 18:22 085 3 gusting 6 20.9
2019-Dec-04 18:16 085 4 gusting 5 20.3
2019-Dec-04 18:12 101 4 gusting 5 20.2
2019-Dec-04 18:06 093 5 gusting 7 20.2
2019-Dec-04 18:02 088 4 gusting 6 20.5